METAR Data
IDs: Format: Raw Decoded Include TAF

Data at: 0822 UTC 20 Sep 2018

PADE 200753Z AUTO 20008KT 10SM FEW021 BKN033 OVC043 04/04 A3003 RMK AO2 SLP169 T00440044 TSNO
PADE 200749Z AUTO 20007KT 10SM SCT021 BKN033 OVC041 04/04 A3003 RMK AO2 TSNO
PADE 200740Z AUTO 20007KT 10SM BKN021 OVC041 04/04 A3003 RMK AO2 T00440044 TSNO
PADE 200653Z AUTO 20007KT 10SM FEW019 BKN038 BKN045 04/04 A3003 RMK AO2 RAE03 SLP169 P0000 T00440044 TSNO
PADE 200553Z AUTO 20004KT 10SM -RA FEW019 OVC032 06/06 A3003 RMK AO2 RAB48 SLP169 P0000 60000 T00560056 10094 20050 50000 TSNO
PADE 200453Z AUTO 32004KT 10SM FEW019 07/06 A3003 RMK AO2 SLP170 T00720056 TSNO
PADE 200403Z AUTO 31005KT 10SM FEW020 08/07 A3003 RMK AO2 T00830067 TSNO
PADE 200353Z AUTO 30005KT 10SM BKN020 09/07 A3003 RMK AO2 SLP169 T00890067 TSNO
PADE 200253Z AUTO 33006KT 10SM BKN017 OVC038 09/07 A3003 RMK AO2 RAE05 SLP168 P0000 60000 T00890072 56000 TSNO
PADE 200249Z AUTO 33005KT 10SM BKN017 BKN038 09/07 A3003 RMK AO2 RAE05 P0000 TSNO
PADE 200159Z AUTO 30004KT 3SM -RA BR OVC035 08/08 A3003 RMK AO2 P0000 T00830078 TSNO
PADE 200153Z AUTO 27004KT 1 1/2SM +RA BR BKN033 08/07 A3003 RMK AO2 RAB14 SLP168 P0000 T00830072 TSNO
PADE 200150Z AUTO 30006KT 1 3/4SM RA BR FEW017 BKN035 OVC042 08/08 A3003 RMK AO2 RAB14 P0000 TSNO
PADE 200053Z AUTO 28009KT 10SM SCT017 BKN024 OVC042 09/07 A3003 RMK AO2 RAE07 SLP169 P0000 T00940072 TSNO
PADE 200043Z AUTO 25005KT 10SM BKN021 BKN025 OVC035 09/07 A3003 RMK AO2 RAE07 P0000 T00890072 TSNO
PADE 200007Z AUTO 00000KT 10SM SCT025 SCT030 OVC038 08/07 A3004 RMK AO2 RAE07 P0000 T00830067 TSNO
PADE 192353Z AUTO 31006KT 10SM -RA BKN027 BKN031 OVC041 08/07 A3004 RMK AO2 RAB2259 SLP173 P0000 60000 T00830072 10094 20044 55000 TSNO
PADE 192253Z AUTO 27004KT 10SM FEW014 OVC037 09/07 A3003 RMK AO2 RAE2159 SLP170 P0000 T00940067 TSNO
PADE 192122Z AUTO 28006KT 10SM -RA SCT028 OVC038 08/07 A3004 RMK AO2 P0000 T00830067 TSNO
PADE 192053Z AUTO 30009KT 9SM -RA BKN026 OVC036 09/07 A3004 RMK AO2 RAB44 SLP173 P0000 60000 T00890067 56004 TSNO
PADE 191953Z AUTO 26006KT 10SM OVC040 08/07 A3004 RMK AO2 RAE25 SLP173 P0000 T00780072 TSNO
PADE 191905Z AUTO 20005KT 5SM -RA BR FEW017 SCT026 OVC035 06/06 A3005 RMK AO2 P0000 T00610061 TSNO
PADE 191830Z AUTO 25003KT 10SM -RA BKN017 OVC036 06/06 A3005 RMK AO2 RAB29 P0000 T00560056 TSNO
PADE 191753Z AUTO 24004KT 10SM OVC035 04/04 A3005 RMK AO2 SLP177 60000 T00440044 10061 20022 55002 TSNO
PADE 191653Z AUTO 00000KT 10SM FEW055 BKN110 02/02 A3005 RMK AO2 SLP177 T00220022 TSNO
PADE 191604Z AUTO 23004KT 3SM BR FEW001 BKN050 03/03 A3006 RMK AO2 T00280028 TSNO
PADE 191553Z AUTO 20005KT 1 1/4SM BR FEW001 SCT050 03/03 A3006 RMK AO2 SLP178 T00280028 TSNO
PADE 191547Z AUTO 20005KT 2 1/2SM BR FEW001 03/03 A3006 RMK AO2 TSNO
PADE 191544Z AUTO 20005KT 3SM BR CLR 03/03 A3006 RMK AO2 T00330033 TSNO
PADE 191514Z AUTO 21003KT 1 1/2SM BR SCT001 BKN050 03/03 A3006 RMK AO2 T00330033 TSNO
PADE 191453Z AUTO 18003KT 1/2SM FG SCT002 BKN075 04/04 A3006 RMK AO2 RAE25 SLP180 P0000 60000 T00390039 58007 TSNO
PADE 191448Z AUTO 18003KT 1 3/4SM BR FEW002 SCT075 04/04 A3006 RMK AO2 RAE25 P0000 TSNO
PADE 191353Z AUTO 00000KT 10SM -RA SCT039 BKN055 OVC075 06/06 A3007 RMK AO2 SLP182 P0000 T00560056 TSNO
PADE 191253Z AUTO 00000KT 10SM -RA OVC047 06/06 A3007 RMK AO2 RAB33 SLP184 P0000 T00560056 TSNO
PADE 191053Z AUTO 18003KT 10SM BKN039 BKN050 OVC080 06/06 A3009 RMK AO2 RAB0956E20 SLP189 P0000 T00610061 TSNO
PADE 190953Z AUTO 00000KT 10SM FEW048 OVC060 07/07 A3009 RMK AO2 RAE14B34E52 SLP190 P0000 T00670067 TSNO
PADE 190853Z AUTO 20004KT 10SM -RA OVC045 07/07 A3010 RMK AO2 RAE09B27 SLP193 P0000 60000 T00670067 401220039 58005 TSNO
PADE 190753Z AUTO 21003KT 10SM -RA FEW034 OVC050 07/07 A3011 RMK AO2 RAE24B42 SLP196 P0000 T00720067 TSNO
PADE 190653Z AUTO 17003KT 10SM -RA SCT034 BKN042 OVC049 07/07 A3011 RMK AO2 RAB37 SLP197 P0000 T00720067 TSNO
PADE 190553Z AUTO 21005KT 10SM SCT036 BKN047 OVC085 08/07 A3011 RMK AO2 RAE53 SLP198 P0000 60000 T00830067 10111 20083 58001 TSNO
PADE 190453Z AUTO 20003KT 10SM -RA OVC038 08/07 A3012 RMK AO2 RAE18B45 SLP199 P0000 T00830072 TSNO
PADE 190353Z AUTO 17006KT 4SM -RA BR FEW032 BKN039 OVC065 08/07 A3012 RMK AO2 RAB43 SLP200 P0000 T00830067 TSNO
PADE 190253Z AUTO 13003KT 10SM OVC065 11/06 A3012 RMK AO2 SLP199 60000 T01110061 58007 TSNO
PADE 190153Z AUTO 12005KT 10SM BKN042 BKN060 11/06 A3013 RMK AO2 RAE21 SLP202 P0000 T01060056 TSNO
PADE 190053Z AUTO 14007KT 10SM -RA BKN048 OVC060 11/06 A3013 RMK AO2 SLP204 P0000 T01060061 TSNO
PADE 182353Z AUTO 19008KT 10SM -RA OVC060 11/04 A3014 RMK AO2 RAB52 SLP206 P0000 60000 T01110039 10122 20067 58002 TSNO
PADE 182253Z AUTO 21009KT 10SM OVC060 12/03 A3014 RMK AO2 SLP206 T01170033 TSNO
PADE 182153Z AUTO 22007KT 10SM FEW033 OVC055 11/05 A3014 RMK AO2 SLP208 T01110050 TSNO
PADE 182053Z AUTO 19006KT 10SM OVC050 10/06 A3014 RMK AO2 SLP208 T01000056 51005 TSNO $